createdAt,value
2023-05-15T05:57:31.830Z,7.80
2023-05-15T05:59:59.263Z,10.18
2023-05-15T06:02:27.218Z,4.13
2023-05-15T06:04:54.286Z,5.90
2023-05-15T06:07:21.735Z,5.78
2023-05-15T06:09:48.839Z,4.00
2023-05-15T06:12:15.806Z,8.20
2023-05-15T06:14:42.800Z,5.57
2023-05-15T06:17:09.820Z,2.22
2023-05-15T06:19:36.920Z,4.32
2023-05-15T06:22:03.957Z,3.47
2023-05-15T06:24:30.979Z,4.78
2023-05-15T17:22:09.298Z,17.27
2023-05-15T17:24:50.059Z,12.73
2023-05-15T17:27:19.481Z,12.65
2023-05-15T17:29:46.967Z,10.18
2023-05-15T17:32:14.150Z,9.13
2023-05-15T17:34:41.210Z,11.02
2023-05-15T17:37:08.975Z,8.93
2023-05-15T17:39:35.904Z,7.90
2023-05-15T17:42:03.330Z,7.82
2023-05-15T17:44:31.246Z,9.43
2023-05-15T17:46:58.565Z,9.90
2023-05-15T17:49:26.239Z,11.02
2023-05-15T17:51:53.948Z,14.52
2023-05-15T17:54:20.967Z,11.43
2023-05-15T17:56:48.444Z,9.10
2023-05-15T17:59:15.620Z,13.30
2023-05-15T18:01:42.719Z,12.00
2023-05-15T18:04:10.154Z,11.55
2023-05-15T18:06:37.346Z,11.93
2023-05-15T18:09:05.174Z,12.25
2023-05-15T18:11:32.323Z,12.05
2023-05-15T18:13:59.586Z,10.35
2023-05-15T18:16:27.079Z,12.50
2023-05-15T18:18:54.169Z,12.77
2023-05-15T18:21:21.224Z,13.80
2023-05-15T18:23:48.171Z,13.10
2023-05-15T18:26:15.260Z,12.60
2023-05-15T18:28:42.309Z,10.68
2023-05-15T18:31:09.451Z,10.60
2023-05-15T18:33:36.489Z,14.30
2023-05-15T18:36:05.971Z,10.20
2023-05-15T18:38:34.465Z,10.70
2023-05-15T18:41:01.431Z,8.48
2023-05-15T18:43:28.687Z,11.85
2023-05-15T18:45:55.664Z,8.32
2023-05-15T18:48:22.580Z,8.02
2023-05-15T18:50:49.568Z,8.35
2023-05-15T18:53:16.533Z,7.70
2023-05-15T18:55:43.441Z,7.40
2023-05-15T18:58:10.366Z,6.00
2023-05-15T19:00:39.228Z,5.22
2023-05-15T19:03:08.443Z,4.88
2023-05-15T19:05:36.118Z,4.25
2023-05-15T19:08:03.931Z,6.57
2023-05-15T19:10:30.950Z,6.95
2023-05-15T19:12:58.500Z,3.92
2023-05-15T19:15:25.964Z,5.45
2023-05-15T19:17:53.406Z,4.63
2023-05-15T19:20:20.939Z,4.25
2023-05-15T19:22:47.981Z,3.38
2023-05-15T19:25:14.933Z,4.20
2023-05-15T19:27:42.031Z,4.25
2023-05-15T19:30:10.007Z,4.20
2023-05-15T19:32:37.755Z,4.75
2023-05-15T19:35:05.554Z,4.72
2023-05-15T19:37:32.550Z,3.13
2023-05-15T19:39:59.439Z,4.55
2023-05-15T19:42:26.521Z,3.17
2023-05-15T19:44:53.629Z,4.10
2023-05-15T19:47:20.716Z,3.75
2023-05-15T19:49:47.836Z,3.05
2023-05-15T19:52:16.009Z,4.95
2023-05-15T19:54:43.027Z,3.45
2023-05-15T19:57:10.757Z,4.32
2023-05-15T19:59:37.977Z,3.95
2023-05-15T20:02:09.264Z,5.47
2023-05-15T20:04:37.095Z,6.43
2023-05-15T20:07:04.433Z,4.88
2023-05-15T20:09:31.405Z,2.35
2023-05-15T20:11:58.835Z,6.45
2023-05-15T20:14:25.757Z,7.93
2023-05-15T20:16:52.647Z,2.75
2023-05-15T20:19:22.345Z,2.55
2023-05-15T20:21:49.913Z,3.50
2023-05-15T20:24:17.894Z,2.60
2023-05-15T20:26:45.394Z,2.85
2023-05-15T20:29:12.352Z,6.75
2023-05-15T20:31:40.559Z,4.78
2023-05-15T20:34:08.185Z,4.85
2023-05-15T20:36:35.974Z,2.83
2023-05-15T20:39:05.920Z,3.65
2023-05-15T20:41:37.116Z,5.15
2023-05-15T20:44:04.378Z,2.75
2023-05-15T20:46:32.018Z,2.92
2023-05-15T20:48:59.054Z,3.65
2023-05-15T20:51:25.963Z,1.98
2023-05-15T20:53:52.867Z,4.15
2023-05-15T20:56:19.815Z,2.58
2023-05-15T20:58:46.738Z,2.70
2023-05-15T21:01:13.719Z,3.63
2023-05-15T21:03:41.011Z,2.10
2023-05-15T21:06:08.804Z,3.75
2023-05-15T21:08:35.965Z,4.20
2023-05-15T21:11:02.921Z,1.77
2023-05-15T21:13:29.895Z,4.72
2023-05-15T21:15:56.957Z,3.08
2023-05-15T21:18:23.941Z,3.03
2023-05-15T21:20:50.898Z,1.95
2023-05-15T21:23:18.250Z,2.88
2023-05-15T21:25:45.317Z,3.83
2023-05-15T21:28:12.310Z,4.22
2023-05-15T21:30:39.322Z,1.70
2023-05-15T21:33:06.317Z,2.80
2023-05-15T21:35:33.269Z,2.00
2023-05-15T21:38:00.395Z,2.72
2023-05-15T21:40:27.523Z,1.52
2023-05-15T21:42:54.688Z,2.72
2023-05-15T21:45:21.638Z,1.60
2023-05-15T21:47:48.679Z,3.70
2023-05-15T21:50:15.735Z,1.95
2023-05-15T21:52:42.623Z,2.50
2023-05-15T21:55:09.774Z,2.95
2023-05-15T21:57:36.677Z,2.03
2023-05-15T22:00:06.810Z,3.05
2023-05-15T22:02:33.918Z,1.92
2023-05-15T22:05:00.865Z,2.38
2023-05-15T22:07:27.913Z,2.33
2023-05-15T22:09:54.923Z,3.28
2023-05-15T22:12:22.060Z,3.25
2023-05-15T22:14:58.574Z,1.73
2023-05-15T22:17:29.197Z,2.08
2023-05-15T22:20:06.618Z,3.22
2023-05-15T22:22:35.481Z,3.70
2023-05-15T22:25:02.526Z,3.35
2023-05-15T22:27:29.541Z,2.25
2023-05-15T22:29:56.541Z,4.20
2023-05-15T22:32:23.877Z,5.63
2023-05-15T22:34:50.891Z,1.98
2023-05-15T22:37:17.995Z,1.90
2023-05-15T22:39:44.969Z,2.75
2023-05-15T22:42:11.866Z,1.65
2023-05-15T22:44:38.808Z,3.53
2023-05-15T22:47:06.033Z,2.17
2023-05-15T22:49:33.081Z,1.10
2023-05-15T22:52:00.037Z,2.03
2023-05-15T22:54:26.935Z,1.35
2023-05-15T22:56:54.355Z,1.85
2023-05-15T22:59:21.560Z,1.73
2023-05-15T23:01:50.403Z,2.47
2023-05-15T23:04:17.659Z,2.65
2023-05-15T23:06:44.906Z,1.15
2023-05-15T23:09:11.891Z,1.15
2023-05-15T23:11:38.925Z,2.67
2023-05-15T23:14:06.785Z,1.80
2023-05-15T23:16:33.867Z,2.35
2023-05-15T23:19:00.854Z,1.55
2023-05-15T23:21:28.513Z,2.50
2023-05-15T23:23:55.655Z,2.45
2023-05-15T23:26:22.629Z,3.13
2023-05-15T23:28:50.166Z,2.85
2023-05-15T23:31:17.439Z,2.45
2023-05-15T23:33:44.493Z,5.97
2023-05-15T23:36:11.376Z,2.38
2023-05-15T23:38:38.354Z,2.08
2023-05-15T23:41:05.537Z,1.27
2023-05-15T23:43:32.581Z,2.85
2023-05-15T23:45:59.569Z,5.45
2023-05-15T23:48:26.549Z,4.28
2023-05-15T23:50:54.636Z,1.42
2023-05-15T23:53:21.609Z,2.33
2023-05-15T23:55:48.707Z,2.05
2023-05-15T23:58:15.823Z,1.85
